עמוד ראשי
METAR-TAF:

METAR-TAF

שדות תעופה :

בלפאסט, צפון אירלנד

קו רוחב: 54-36N, קו אורך: 005-53W, גובה: 5מטר

תצפית מזג אוויר נוכחית

הדו"ח נערך לפני 27דקות, בשעה 16:50 UTC
רוח 9קשר מכיוון דרום/דרום-מזרח, משתנה בין דרום-מזרח ו דרום/דרום-מערב
טמפרטורת 21 צלסיוס
לחות 69%
לחץ 1015 hPa
ראות 10 קילומטר או יותר
מעט עננים בגובה 3800רגל

METAR: EGAC 241650Z AUTO 16009KT 140V200 9999 FEW038 21/15 Q1015

זמן: 18:17 (17:17 UTC)

תחזית

הדו"ח נערך לפני 3 שעות ו 20דקות, בשעה 13:57 UTC
תחזית בתוקף מ 24 ב 15 UTC עד 24 ב 22 UTC
רוח 11קשר מכיוון דרום/דרום-מזרח
ראות 10 קילומטר או יותר
עננים פזורים בגובה 4000רגל

TAF: EGAC 241357Z 2415/2422 16011KT 9999 SCT040

תצפיות ותחזיות מזג אוויר לגבי יותר מ- 4,000 שדות תעופה ברחבי העולם. דוחות METAR ו- TAF.

התחנות הזמינות מסומנות בנקודות צהובות ואדומות על גבי המפה.

העבר את העכבר לנקודה הצבעונית על מנת לראות את שם התחנה.

לאחר מכן, לחץ כדי לראות את תוכן ואת תחזיות מזג האוויר.

כדי לשנות את המפה: לחץ על הכפתורים הירוקים עם הפלוס השחור כדי להתקרב; על הכפתור הירוק עם המקף כדי להתרחק; או בחיצים הירוקים למפות סמוכות.


METAR-TAF: